Current Weather

Yokota Ab

Yokota Ab, Japan (RJTY)

Report from: Sunday, February 25, 2024 2:55 AM JST
Current time: Sunday, February 25, 2024 4:00 AM JST

Nearby weather – Weather history – Daily summaries
Weather forecast

Temperature2.8°C (37.0°F)
Wind chill0.2°C (32.4°F)
Dew point-1.0°C (30.2°F)
Winds 5 kts (2.6 m/s, 5.8 mph) North (10°)
Visibility10 mi. (16.1 km)
Clouds Few clouds 3,000 ft. (914 m)
Ceiling: Broken clouds 4,900 ft. (1,494 m)
Altimeter30.30 in.Hg (1026 mB)
Relative humidity76 %
Density altitude-1,851 ft. (-564 m)
Sea-level pressure102.7 kPa (1027 mB, 30.32 in.Hg)
Max temp last 6 hours5.3°C (41.5°F)
Min temp last 6 hours2.6°C (36.7°F)
Remarks System requires maintenance
Automated weather observing station with precipitation discriminator
Pressure falling
Flight conditions Visual Meteorological Conditions
Raw dataRJTY 241755Z 01005KT 10SM FEW030 BKN049 03/M01 A3030 RMK AO2A SLP267 T00281010 10053 20026 57014 $
An error has occurred. This application may no longer respond until reloaded. Reload 🗙